Terminal Aerodrome Forecast
Issued by NWS

Home | Current Version | Previous Version | Text Only | Print | Product List | Glossary On
Versions: 1 2 3 4 5 6 7 8 9 10 11 12
000
FTUS46 KSGX 251120
TAFONT
TAF
KONT 251120Z 2512/2618 VRB04KT P6SM SCT250
     FM251300 VRB04KT 6SM HZ SCT250
     FM252100 26011G18KT P6SM FEW250
     FM260400 VRB04KT P6SM FEW250
     FM261100 VRB04KT 4SM BR VCFG SCT005
     FM261600 VRB04KT 6SM HZ FEW008=

USA.gov is the U.S. government's official web portal to all federal, state and local government web resources and services.